Time;durP1;ratioP1;P1;durP2;ratioP2;P2;SDS_P1;SDS_P2;PMS_P1;PMS_P2;Temp;Humidity;BMP_temperature;BMP_pressure;BME280_temperature;BME280_humidity;BME280_pressure;Samples;Min_cycle;Max_cycle;Signal;HPM_P1;HPM_P2
2022/06/07 00:00:49;;;;;;;4.75;4.35;;;;;;;-145.23;100.00;58621.06;5023764;28;20236;-56
2022/06/07 00:03:15;;;;;;;4.57;4.28;;;;;;;-145.23;100.00;58621.06;5026441;28;20238;-54
2022/06/07 00:05:45;;;;;;;4.15;3.85;;;;;;;-145.23;100.00;58621.06;5028964;28;20232;-74
2022/06/07 00:08:12;;;;;;;5.05;4.65;;;;;;;-145.23;100.00;58621.06;5022929;28;20239;-53
2022/06/07 00:10:40;;;;;;;4.90;4.38;;;;;;;-145.23;100.00;58621.06;5025247;28;20243;-53
2022/06/07 00:13:07;;;;;;;5.10;4.60;;;;;;;-145.23;100.00;58621.06;5017865;28;20248;-53
2022/06/07 00:15:34;;;;;;;4.97;4.45;;;;;;;-145.23;100.00;58621.06;5021616;28;20228;-53
2022/06/07 00:18:04;;;;;;;5.03;4.60;;;;;;;-145.23;100.00;58621.06;5021784;28;20721;-54
2022/06/07 00:20:31;;;;;;;5.45;4.97;;;;;;;-145.23;100.00;58621.06;5027330;28;20727;-53
2022/06/07 00:22:58;;;;;;;4.97;4.57;;;;;;;-145.23;100.00;58621.06;5021537;28;20240;-53
2022/06/07 00:25:24;;;;;;;5.18;4.72;;;;;;;-145.23;100.00;58621.06;5027454;28;20315;-54
2022/06/07 00:27:52;;;;;;;4.30;3.97;;;;;;;-145.23;100.00;58621.06;5023438;28;20233;-52
2022/06/07 00:30:19;;;;;;;4.15;3.85;;;;;;;-145.23;100.00;58621.06;5027696;28;20243;-52
2022/06/07 00:32:46;;;;;;;5.18;4.78;;;;;;;-145.23;100.00;58621.06;5022796;28;20247;-53
2022/06/07 00:35:14;;;;;;;5.00;4.60;;;;;;;-145.23;100.00;58621.06;5028049;28;20672;-53
2022/06/07 00:37:41;;;;;;;5.45;4.95;;;;;;;-145.23;100.00;58621.06;5024632;28;20240;-53
2022/06/07 00:40:08;;;;;;;4.75;4.00;;;;;;;-145.23;100.00;58621.06;5026179;28;20323;-53
2022/06/07 00:42:35;;;;;;;4.35;3.85;;;;;;;-145.23;100.00;58621.06;5024334;28;20263;-53
2022/06/07 00:45:04;;;;;;;4.85;4.45;;;;;;;-145.23;100.00;58621.06;5025392;28;21004;-54
2022/06/07 00:47:32;;;;;;;6.43;5.35;;;;;;;-145.23;100.00;58621.06;5021269;28;20239;-52
2022/06/07 00:50:02;;;;;;;5.45;4.90;;;;;;;-145.23;100.00;58621.06;5027754;28;20702;-52
2022/06/07 00:52:30;;;;;;;4.78;4.38;;;;;;;-145.23;100.00;58621.06;5022895;28;20236;-52
2022/06/07 00:54:57;;;;;;;5.00;4.60;;;;;;;-145.23;100.00;58621.06;5027008;28;20231;-52
2022/06/07 00:57:24;;;;;;;4.70;4.30;;;;;;;-145.23;100.00;58621.06;5023610;28;20233;-53
2022/06/07 00:59:51;;;;;;;6.55;4.82;;;;;;;-145.23;100.00;58621.06;5022633;28;20233;-52
2022/06/07 01:02:19;;;;;;;5.32;4.93;;;;;;;-145.23;100.00;58621.06;5027739;28;20244;-52
2022/06/07 01:04:46;;;;;;;4.05;3.75;;;;;;;-145.23;100.00;58621.06;5028734;28;20225;-52
2022/06/07 01:12:41;;;;;;;6.00;5.15;;;;;;;-145.23;100.00;58621.06;5027867;28;20606;-53
2022/06/07 01:15:09;;;;;;;4.55;4.20;;;;;;;-145.23;100.00;58621.06;5020625;28;20240;-53
2022/06/07 01:17:37;;;;;;;4.50;4.20;;;;;;;-145.23;100.00;58621.06;5035926;28;20675;-53
2022/06/07 01:20:05;;;;;;;5.10;4.60;;;;;;;-145.23;100.00;58621.06;5026257;28;20236;-52
2022/06/07 01:22:33;;;;;;;5.43;4.43;;;;;;;-145.23;100.00;58621.06;5020223;28;20232;-52
2022/06/07 01:25:00;;;;;;;5.10;4.65;;;;;;;-145.23;100.00;58621.06;5025604;28;20797;-53
2022/06/07 01:27:26;;;;;;;4.40;4.03;;;;;;;-145.23;100.00;58621.06;5026297;28;20240;-53
2022/06/07 01:29:53;;;;;;;4.88;4.47;;;;;;;-145.23;100.00;58621.06;5023427;28;20968;-53
2022/06/07 01:32:19;;;;;;;4.28;3.97;;;;;;;-145.23;100.00;58621.06;5019141;28;20232;-54
2022/06/07 01:34:47;;;;;;;4.47;4.18;;;;;;;-145.23;100.00;58621.06;5026939;28;20233;-53
2022/06/07 01:37:15;;;;;;;4.03;3.72;;;;;;;-145.23;100.00;58621.06;5026956;28;20328;-53
2022/06/07 01:42:26;;;;;;;4.05;3.75;;;;;;;-145.23;100.00;58621.06;5010389;28;20717;-53
2022/06/07 01:44:53;;;;;;;5.25;3.90;;;;;;;-145.23;100.00;58621.06;5025795;28;20229;-53
2022/06/07 01:47:21;;;;;;;4.30;4.00;;;;;;;-145.23;100.00;58621.06;5025253;28;20236;-54
2022/06/07 01:49:47;;;;;;;3.92;3.63;;;;;;;-145.23;100.00;58621.06;5026697;28;20236;-53
2022/06/07 01:52:16;;;;;;;5.45;5.05;;;;;;;-145.23;100.00;58621.06;5027751;28;20237;-53
2022/06/07 01:54:44;;;;;;;4.07;3.80;;;;;;;-145.23;100.00;58621.06;5025507;28;20225;-53
2022/06/07 01:57:11;;;;;;;4.38;4.07;;;;;;;-145.23;100.00;58621.06;5026096;28;20232;-53
2022/06/07 01:59:39;;;;;;;4.85;4.45;;;;;;;-145.23;100.00;58621.06;5022687;28;20224;-53
2022/06/07 02:02:07;;;;;;;4.60;4.30;;;;;;;-145.23;100.00;58621.06;5026895;28;20232;-53
2022/06/07 02:04:35;;;;;;;4.68;4.28;;;;;;;-145.23;100.00;58621.06;5026172;28;20912;-53
2022/06/07 02:07:03;;;;;;;4.88;4.35;;;;;;;-145.23;100.00;58621.06;5023519;28;20233;-53
2022/06/07 02:09:30;;;;;;;5.60;5.10;;;;;;;-145.23;100.00;58621.06;5023510;28;20268;-53
2022/06/07 02:11:58;;;;;;;4.30;4.00;;;;;;;-145.23;100.00;58621.06;5025783;28;20383;-53
2022/06/07 02:14:25;;;;;;;5.00;4.60;;;;;;;-145.23;100.00;58621.06;5019582;28;20248;-54
2022/06/07 02:16:52;;;;;;;4.45;4.03;;;;;;;-145.23;100.00;58621.06;5025704;28;20278;-53
2022/06/07 02:19:18;;;;;;;5.43;4.93;;;;;;;-145.23;100.00;58621.06;5022597;28;20239;-52
2022/06/07 02:21:45;;;;;;;4.80;4.40;;;;;;;-145.23;100.00;58621.06;5025434;28;20229;-53
2022/06/07 02:24:12;;;;;;;5.40;4.90;;;;;;;-145.23;100.00;58621.06;5025405;28;20237;-54
2022/06/07 02:26:41;;;;;;;5.53;5.00;;;;;;;-145.23;100.00;58621.06;5026840;28;20233;-52
2022/06/07 02:29:12;;;;;;;5.22;4.78;;;;;;;-145.23;100.00;58621.06;5025305;28;20240;-52
2022/06/07 02:31:41;;;;;;;6.20;4.55;;;;;;;-145.23;100.00;58621.06;5023326;28;20245;-53
2022/06/07 02:34:07;;;;;;;4.97;4.57;;;;;;;-145.23;100.00;58621.06;5024876;28;20711;-52
2022/06/07 02:36:34;;;;;;;5.22;4.82;;;;;;;-145.23;100.00;58621.06;5026042;28;20244;-53
2022/06/07 02:39:02;;;;;;;4.78;4.38;;;;;;;-145.23;100.00;58621.06;5018698;28;20238;-52
2022/06/07 02:41:30;;;;;;;4.72;4.32;;;;;;;-145.23;100.00;58621.06;5024820;28;20232;-52
2022/06/07 02:43:57;;;;;;;6.47;4.75;;;;;;;-145.23;100.00;58621.06;5023100;28;20676;-54
2022/06/07 02:46:25;;;;;;;4.60;4.30;;;;;;;-145.23;100.00;58621.06;5023426;28;20225;-53
2022/06/07 02:48:52;;;;;;;4.60;4.25;;;;;;;-145.23;100.00;58621.06;5024141;28;20228;-54
2022/06/07 02:51:18;;;;;;;4.55;4.22;;;;;;;-145.23;100.00;58621.06;5025486;28;20237;-53
2022/06/07 02:53:45;;;;;;;5.07;4.57;;;;;;;-145.23;100.00;58621.06;5025165;28;20236;-53
2022/06/07 02:56:12;;;;;;;3.95;3.65;;;;;;;-145.23;100.00;58621.06;5019324;28;20723;-54
2022/06/07 02:58:38;;;;;;;4.28;3.88;;;;;;;-145.23;100.00;58621.06;5022388;28;20244;-52
2022/06/07 03:01:05;;;;;;;4.35;3.97;;;;;;;-145.23;100.00;58621.06;5024571;28;20740;-53
2022/06/07 03:03:33;;;;;;;4.85;4.45;;;;;;;-145.23;100.00;58621.06;5023630;28;20252;-53
2022/06/07 03:05:59;;;;;;;4.63;4.20;;;;;;;-145.23;100.00;58621.06;5021825;28;20251;-53
2022/06/07 03:08:26;;;;;;;4.13;3.83;;;;;;;-145.23;100.00;58621.06;5024320;28;20236;-53
2022/06/07 03:10:53;;;;;;;3.53;3.22;;;;;;;-145.23;100.00;58621.06;5024918;28;20702;-53
2022/06/07 03:13:20;;;;;;;3.63;3.33;;;;;;;-145.23;100.00;58621.06;5024688;28;20244;-52
2022/06/07 03:15:47;;;;;;;3.80;3.50;;;;;;;-145.23;100.00;58621.06;5024179;28;20316;-53
2022/06/07 03:18:14;;;;;;;4.70;3.35;;;;;;;-145.23;100.00;58621.06;5025121;28;20342;-53
2022/06/07 03:20:43;;;;;;;3.38;3.17;;;;;;;-145.23;100.00;58621.06;5017207;28;20240;-53
2022/06/07 03:23:10;;;;;;;3.30;3.00;;;;;;;-145.23;100.00;58621.06;5024816;28;26113;-53
2022/06/07 03:25:37;;;;;;;3.65;3.35;;;;;;;-145.23;100.00;58621.06;5023679;28;20389;-54
2022/06/07 03:28:04;;;;;;;3.45;3.25;;;;;;;-145.23;100.00;58621.06;5025453;28;20228;-52
2022/06/07 03:30:30;;;;;;;3.72;2.90;;;;;;;-145.23;100.00;58621.06;5023552;28;20318;-52
2022/06/07 03:32:57;;;;;;;3.03;2.80;;;;;;;-145.23;100.00;58621.06;5023436;28;20804;-52
2022/06/07 03:35:24;;;;;;;3.45;3.03;;;;;;;-145.23;100.00;58621.06;5023793;28;20233;-52
2022/06/07 03:37:52;;;;;;;4.10;3.35;;;;;;;-145.23;100.00;58621.06;5023748;28;20330;-52
2022/06/07 03:43:00;;;;;;;3.50;3.17;;;;;;;-145.23;100.00;58621.06;5023442;28;20233;-53
2022/06/07 03:45:26;;;;;;;4.32;2.58;;;;;;;-145.23;100.00;58621.06;5023964;28;20707;-52
2022/06/07 03:47:53;;;;;;;4.55;3.20;;;;;;;-145.23;100.00;58621.06;5023905;28;20251;-53
2022/06/07 03:50:20;;;;;;;3.97;3.58;;;;;;;-145.23;100.00;58621.06;5022040;28;20310;-53
2022/06/07 03:52:47;;;;;;;3.20;2.97;;;;;;;-145.23;100.00;58621.06;5024137;28;20224;-53
2022/06/07 03:55:15;;;;;;;3.47;3.17;;;;;;;-145.23;100.00;58621.06;5025186;28;20243;-52
2022/06/07 03:57:41;;;;;;;3.42;3.13;;;;;;;-145.23;100.00;58621.06;5023939;28;20243;-52
2022/06/07 04:00:10;;;;;;;3.08;2.88;;;;;;;-145.23;100.00;58621.06;5024465;28;20236;-52
2022/06/07 04:02:36;;;;;;;3.38;3.10;;;;;;;-145.23;100.00;58621.06;5024743;28;20294;-52
2022/06/07 04:05:03;;;;;;;3.03;2.72;;;;;;;-145.23;100.00;58621.06;5024603;28;20725;-52
2022/06/07 04:10:16;;;;;;;2.97;2.78;;;;;;;-145.23;100.00;58621.06;5013190;28;20836;-55
2022/06/07 04:12:42;;;;;;;3.50;3.20;;;;;;;-145.23;100.00;58621.06;5023300;28;20232;-54
2022/06/07 04:15:10;;;;;;;4.43;3.03;;;;;;;-145.23;100.00;58621.06;5023407;28;20241;-53
2022/06/07 04:17:36;;;;;;;3.30;2.88;;;;;;;-145.23;100.00;58621.06;5022826;28;20248;-53
2022/06/07 04:20:03;;;;;;;3.22;2.97;;;;;;;-145.23;100.00;58621.06;5023657;28;20236;-55
2022/06/07 04:22:30;;;;;;;4.18;3.20;;;;;;;-145.23;100.00;58621.06;5023318;28;20252;-53
2022/06/07 04:24:56;;;;;;;3.13;2.90;;;;;;;-145.23;100.00;58621.06;5023489;28;20255;-72
2022/06/07 04:27:24;;;;;;;3.83;3.45;;;;;;;-145.23;100.00;58621.06;5018891;28;20259;-53
2022/06/07 04:29:51;;;;;;;3.30;3.05;;;;;;;-145.23;100.00;58621.06;5023680;28;20253;-53
2022/06/07 04:32:19;;;;;;;3.50;3.20;;;;;;;-145.23;100.00;58621.06;5025151;28;20247;-54
2022/06/07 04:34:46;;;;;;;3.60;3.30;;;;;;;-145.23;100.00;58621.06;5023601;28;20232;-53
2022/06/07 04:37:12;;;;;;;3.30;3.00;;;;;;;-145.23;100.00;58621.06;5021161;28;20244;-53
2022/06/07 04:39:39;;;;;;;2.70;2.22;;;;;;;-145.23;100.00;58621.06;5024479;28;20256;-53
2022/06/07 04:42:06;;;;;;;3.05;2.53;;;;;;;-145.23;100.00;58621.06;5022146;28;20232;-54
2022/06/07 04:44:34;;;;;;;2.72;2.53;;;;;;;-145.23;100.00;58621.06;5025539;28;20236;-54
2022/06/07 04:47:00;;;;;;;2.88;2.50;;;;;;;-145.23;100.00;58621.06;5026496;28;20711;-53
2022/06/07 04:49:27;;;;;;;3.03;2.72;;;;;;;-145.23;100.00;58621.06;5027700;28;20327;-52
2022/06/07 04:51:54;;;;;;;5.93;2.45;;;;;;;-145.23;100.00;58621.06;5025409;28;20242;-56
2022/06/07 04:54:20;;;;;;;2.85;2.65;;;;;;;-145.23;100.00;58621.06;5027590;28;20252;-55
2022/06/07 04:56:47;;;;;;;3.20;2.42;;;;;;;-145.23;100.00;58621.06;5028962;28;20239;-56
2022/06/07 04:59:13;;;;;;;2.47;2.28;;;;;;;-145.23;100.00;58621.06;5027610;28;20252;-52
2022/06/07 05:01:44;;;;;;;3.38;3.08;;;;;;;-145.23;100.00;58621.06;5026656;28;22355;-55
2022/06/07 05:04:11;;;;;;;2.17;2.08;;;;;;;-145.23;100.00;58621.06;5027487;28;20264;-56
2022/06/07 05:06:40;;;;;;;2.28;2.10;;;;;;;-145.23;100.00;58621.06;5026253;28;20228;-53
2022/06/07 05:09:10;;;;;;;3.20;2.92;;;;;;;-145.23;100.00;58621.06;5026812;28;20729;-53
2022/06/07 05:11:37;;;;;;;2.92;2.72;;;;;;;-145.23;100.00;58621.06;5026435;28;20324;-52
2022/06/07 05:14:05;;;;;;;4.47;2.90;;;;;;;-145.23;100.00;58621.06;5028264;28;20239;-63
2022/06/07 05:16:33;;;;;;;1.88;1.77;;;;;;;-145.23;100.00;58621.06;5024984;28;20806;-53
2022/06/07 05:19:01;;;;;;;2.35;2.10;;;;;;;-145.23;100.00;58621.06;5031454;28;20240;-53
2022/06/07 05:21:28;;;;;;;2.80;2.60;;;;;;;-145.23;100.00;58621.06;5028002;28;20239;-54
2022/06/07 05:23:54;;;;;;;3.00;2.63;;;;;;;-145.23;100.00;58621.06;5028718;28;20243;-54
2022/06/07 05:26:25;;;;;;;2.10;2.00;;;;;;;-145.23;100.00;58621.06;5026345;28;20327;-54
2022/06/07 05:28:52;;;;;;;2.28;2.08;;;;;;;-145.23;100.00;58621.06;5026700;28;20235;-52
2022/06/07 05:31:18;;;;;;;3.65;2.10;;;;;;;-145.23;100.00;58621.06;5027624;28;20239;-53
2022/06/07 05:33:45;;;;;;;5.00;2.10;;;;;;;-145.23;100.00;58621.06;5027453;28;20232;-52
2022/06/07 05:36:13;;;;;;;3.65;2.42;;;;;;;-145.23;100.00;58621.06;5025155;28;20313;-53
2022/06/07 05:38:39;;;;;;;2.35;2.00;;;;;;;-145.23;100.00;58621.06;5026935;28;20263;-52
2022/06/07 05:41:07;;;;;;;2.60;2.40;;;;;;;-145.23;100.00;58621.06;5026316;28;20232;-53
2022/06/07 05:43:34;;;;;;;2.65;2.33;;;;;;;-145.23;100.00;58621.06;5026429;28;20606;-54
2022/06/07 05:46:01;;;;;;;1.90;1.80;;;;;;;-145.23;100.00;58621.06;5027242;28;20240;-54
2022/06/07 05:48:29;;;;;;;4.65;2.35;;;;;;;-145.23;100.00;58621.06;5026645;28;20263;-53
2022/06/07 05:50:56;;;;;;;3.05;2.35;;;;;;;-145.23;100.00;58621.06;5026234;28;20236;-53
2022/06/07 05:53:24;;;;;;;2.88;2.50;;;;;;;-145.23;100.00;58621.06;5024748;28;20240;-53
2022/06/07 05:55:51;;;;;;;2.25;2.00;;;;;;;-145.23;100.00;58621.06;5024630;28;21388;-54
2022/06/07 05:58:18;;;;;;;2.20;2.00;;;;;;;-145.23;100.00;58621.06;5026542;28;20714;-52
2022/06/07 06:00:44;;;;;;;1.92;1.83;;;;;;;-145.23;100.00;58621.06;5025395;28;20711;-54
2022/06/07 06:03:11;;;;;;;3.45;2.22;;;;;;;-145.23;100.00;58621.06;5025197;28;20244;-53
2022/06/07 06:05:38;;;;;;;1.90;1.75;;;;;;;-145.23;100.00;58621.06;5026328;28;20271;-53
2022/06/07 06:11:03;;;;;;;2.00;1.77;;;;;;;-145.23;100.00;58621.06;5025118;28;20414;-53
2022/06/07 06:13:29;;;;;;;2.35;1.92;;;;;;;-145.23;100.00;58621.06;5024896;28;20323;-53
2022/06/07 06:16:01;;;;;;;2.30;2.05;;;;;;;-145.23;100.00;58621.06;5026786;28;20239;-54
2022/06/07 06:18:28;;;;;;;2.15;1.77;;;;;;;-145.23;100.00;58621.06;5022634;28;20238;-53
2022/06/07 06:20:55;;;;;;;2.83;1.75;;;;;;;-145.23;100.00;58621.06;5024699;28;20263;-54
2022/06/07 06:23:22;;;;;;;1.50;1.40;;;;;;;-145.23;100.00;58621.06;5021095;28;20729;-54
2022/06/07 06:25:49;;;;;;;1.70;1.52;;;;;;;-145.23;100.00;58621.06;5027458;28;20232;-52
2022/06/07 06:28:17;;;;;;;3.30;1.58;;;;;;;-145.23;100.00;58621.06;5022145;28;20230;-53
2022/06/07 06:30:44;;;;;;;1.25;1.15;;;;;;;-145.23;100.00;58621.06;5025002;28;20232;-52
2022/06/07 06:33:12;;;;;;;1.67;1.58;;;;;;;-145.23;100.00;58621.06;5026410;28;20329;-56
2022/06/07 06:35:39;;;;;;;1.63;1.45;;;;;;;-145.23;100.00;58621.06;5025153;28;20236;-54
2022/06/07 06:38:07;;;;;;;1.50;1.40;;;;;;;-145.23;100.00;58621.06;5025264;28;20244;-53
2022/06/07 06:40:33;;;;;;;1.30;1.17;;;;;;;-145.23;100.00;58621.06;5026427;28;20319;-53
2022/06/07 06:43:00;;;;;;;3.72;1.63;;;;;;;-145.23;100.00;58621.06;5025225;28;20231;-53
2022/06/07 06:45:29;;;;;;;1.95;1.73;;;;;;;-145.23;100.00;58621.06;5024143;28;20524;-52
2022/06/07 06:47:55;;;;;;;2.67;1.80;;;;;;;-145.23;100.00;58621.06;5024425;28;20314;-53
2022/06/07 06:50:22;;;;;;;2.20;1.95;;;;;;;-145.23;100.00;58621.06;5024540;28;20232;-53
2022/06/07 06:52:48;;;;;;;2.55;1.90;;;;;;;-145.23;100.00;58621.06;5026613;28;20236;-54
2022/06/07 06:55:15;;;;;;;2.95;1.77;;;;;;;-145.23;100.00;58621.06;5025516;28;20244;-54
2022/06/07 06:57:42;;;;;;;4.07;2.10;;;;;;;-145.23;100.00;58621.06;5024138;28;20243;-53
2022/06/07 07:00:09;;;;;;;5.20;2.75;;;;;;;-145.23;100.00;58621.06;5020392;28;20317;-52
2022/06/07 07:02:37;;;;;;;1.70;1.58;;;;;;;-145.23;100.00;58621.06;5023748;28;20251;-52
2022/06/07 07:05:04;;;;;;;5.60;1.90;;;;;;;-145.23;100.00;58621.06;5023544;28;20228;-53
2022/06/07 07:07:31;;;;;;;2.65;1.63;;;;;;;-145.23;100.00;58621.06;5023831;28;21649;-52
2022/06/07 07:09:58;;;;;;;1.70;1.60;;;;;;;-145.23;100.00;58621.06;5021920;28;20235;-53
2022/06/07 07:12:25;;;;;;;1.42;1.33;;;;;;;-145.23;100.00;58621.06;5025457;28;20251;-53
2022/06/07 07:14:51;;;;;;;1.60;1.25;;;;;;;-145.23;100.00;58621.06;5026241;28;20319;-54
2022/06/07 07:17:18;;;;;;;3.03;1.80;;;;;;;-145.23;100.00;58621.06;5018697;28;20254;-53
2022/06/07 07:19:46;;;;;;;3.45;1.83;;;;;;;-145.23;100.00;58621.06;5024679;28;20263;-52
2022/06/07 07:22:12;;;;;;;2.92;1.63;;;;;;;-145.23;100.00;58621.06;5021426;28;20257;-53
2022/06/07 07:24:39;;;;;;;2.58;1.52;;;;;;;-145.23;100.00;58621.06;5022325;28;20240;-52
2022/06/07 07:27:06;;;;;;;4.40;1.30;;;;;;;-145.23;100.00;58621.06;5025042;28;20283;-53
2022/06/07 07:29:33;;;;;;;1.20;1.15;;;;;;;-145.23;100.00;58621.06;5024207;28;20228;-54
2022/06/07 07:31:59;;;;;;;1.98;1.50;;;;;;;-145.23;100.00;58621.06;5018525;28;20895;-52
2022/06/07 07:34:26;;;;;;;2.03;1.17;;;;;;;-145.23;100.00;58621.06;5025831;28;20251;-53
2022/06/07 07:36:55;;;;;;;2.25;1.15;;;;;;;-145.23;100.00;58621.06;5024904;28;20220;-53
2022/06/07 07:39:22;;;;;;;1.40;1.15;;;;;;;-145.23;100.00;58621.06;5022923;28;20237;-53
2022/06/07 07:41:51;;;;;;;1.90;1.05;;;;;;;-145.23;100.00;58621.06;5024526;28;20324;-53
2022/06/07 07:44:18;;;;;;;1.45;1.27;;;;;;;-145.23;100.00;58621.06;5023296;28;20663;-53
2022/06/07 07:46:47;;;;;;;21.00;6.03;;;;;;;-145.23;100.00;58621.06;5022847;28;20235;-52
2022/06/07 07:49:16;;;;;;;3.85;1.85;;;;;;;-145.23;100.00;58621.06;5021745;28;20830;-53
2022/06/07 07:51:45;;;;;;;3.05;1.30;;;;;;;-145.23;100.00;58621.06;5023711;28;20235;-53
2022/06/07 07:54:17;;;;;;;6.55;1.48;;;;;;;-145.23;100.00;58621.06;5024131;28;20232;-53
2022/06/07 07:56:44;;;;;;;1.35;1.25;;;;;;;-145.23;100.00;58621.06;5021601;28;20307;-53
2022/06/07 07:59:14;;;;;;;2.00;1.40;;;;;;;-145.23;100.00;58621.06;5023491;28;20762;-54
2022/06/07 08:01:41;;;;;;;1.15;0.90;;;;;;;-145.23;100.00;58621.06;5021284;28;20245;-52
2022/06/07 08:04:09;;;;;;;2.17;1.05;;;;;;;-145.23;100.00;58621.06;5024391;28;20224;-52
2022/06/07 08:06:36;;;;;;;1.88;1.08;;;;;;;-145.23;100.00;58621.06;5024530;28;20313;-53
2022/06/07 08:09:06;;;;;;;1.25;1.13;;;;;;;-145.23;100.00;58621.06;5019481;28;20221;-55
2022/06/07 08:11:35;;;;;;;1.05;1.05;;;;;;;-145.23;100.00;58621.06;5023255;28;20601;-52
2022/06/07 08:14:02;;;;;;;1.20;1.10;;;;;;;-145.23;100.00;58621.06;5021005;28;20358;-53
2022/06/07 08:16:29;;;;;;;0.93;0.90;;;;;;;-145.23;100.00;58621.06;5024515;28;20232;-53
2022/06/07 08:18:56;;;;;;;0.75;0.75;;;;;;;-145.23;100.00;58621.06;5024653;28;20232;-53
2022/06/07 08:21:26;;;;;;;1.17;1.08;;;;;;;-145.23;100.00;58621.06;5028107;28;20229;-53
2022/06/07 08:23:54;;;;;;;4.68;0.93;;;;;;;-145.23;100.00;58621.06;5024908;28;20812;-53
2022/06/07 08:26:21;;;;;;;1.85;1.05;;;;;;;-145.23;100.00;58621.06;5027983;28;20228;-56
2022/06/07 08:28:50;;;;;;;3.25;1.45;;;;;;;-145.23;100.00;58621.06;5029117;28;20239;-53
2022/06/07 08:31:18;;;;;;;1.52;1.20;;;;;;;-145.23;100.00;58621.06;5029591;28;20243;-53
2022/06/07 08:39:14;;;;;;;0.70;0.70;;;;;;;-145.23;100.00;58621.06;5021677;28;20725;-52
2022/06/07 08:41:45;;;;;;;3.67;1.10;;;;;;;-145.23;100.00;58621.06;5027265;28;20225;-52
2022/06/07 08:44:17;;;;;;;1.85;1.13;;;;;;;-145.23;100.00;58621.06;5027282;28;20232;-53
2022/06/07 08:46:44;;;;;;;1.45;1.10;;;;;;;-145.23;100.00;58621.06;5027124;28;20311;-52
2022/06/07 08:49:12;;;;;;;5.60;1.50;;;;;;;-145.23;100.00;58621.06;5022973;28;20235;-52
2022/06/07 08:51:45;;;;;;;1.10;1.10;;;;;;;-145.23;100.00;58621.06;5023425;28;20257;-52
2022/06/07 08:54:17;;;;;;;3.35;1.75;;;;;;;-145.23;100.00;58621.06;5021913;28;20315;-53
2022/06/07 08:56:45;;;;;;;1.77;1.10;;;;;;;-145.23;100.00;58621.06;5022560;28;20232;-54
2022/06/07 08:59:16;;;;;;;1.88;1.73;;;;;;;-145.23;100.00;58621.06;5019199;28;20710;-53
2022/06/07 09:01:47;;;;;;;0.82;0.80;;;;;;;-145.23;100.00;58621.06;5026116;28;20232;-52
2022/06/07 09:04:17;;;;;;;1.08;0.93;;;;;;;-145.23;100.00;58621.06;5026921;28;20240;-53
2022/06/07 09:06:47;;;;;;;2.58;1.38;;;;;;;-145.23;100.00;58621.06;5028165;28;20632;-52
2022/06/07 09:09:14;;;;;;;1.13;1.02;;;;;;;-145.23;100.00;58621.06;5027954;28;20239;-53
2022/06/07 09:14:45;;;;;;;2.55;1.10;;;;;;;-145.23;100.00;58621.06;4962796;28;20231;-52
2022/06/07 09:17:14;;;;;;;4.07;1.30;;;;;;;-145.23;100.00;58621.06;5015018;28;20240;-54
2022/06/07 09:19:42;;;;;;;1.30;1.23;;;;;;;-145.23;100.00;58621.06;5027248;28;20247;-52
2022/06/07 09:22:15;;;;;;;3.13;1.05;;;;;;;-145.23;100.00;58621.06;5028600;28;20621;-52
2022/06/07 09:24:45;;;;;;;2.33;1.00;;;;;;;-145.23;100.00;58621.06;5025215;28;20235;-53
2022/06/07 09:27:16;;;;;;;1.63;1.40;;;;;;;-145.23;100.00;58621.06;5025669;28;20240;-54
2022/06/07 09:29:52;;;;;;;2.70;1.23;;;;;;;-145.23;100.00;58621.06;5022788;28;20229;-51
2022/06/07 09:32:20;;;;;;;1.48;1.25;;;;;;;-145.23;100.00;58621.06;5026166;28;20240;-50
2022/06/07 09:34:58;;;;;;;1.42;1.20;;;;;;;-145.23;100.00;58621.06;5027068;28;20240;-50
2022/06/07 09:37:40;;;;;;;2.20;1.42;;;;;;;-145.23;100.00;58621.06;5020894;28;20225;-51
2022/06/07 09:40:20;;;;;;;1.25;1.15;;;;;;;-145.23;100.00;58621.06;5020949;28;20730;-52
2022/06/07 09:42:53;;;;;;;2.20;1.35;;;;;;;-145.23;100.00;58621.06;5025168;28;20710;-51
2022/06/07 09:45:26;;;;;;;1.42;1.33;;;;;;;-145.23;100.00;58621.06;5023562;28;20634;-52
2022/06/07 09:47:52;;;;;;;3.15;1.77;;;;;;;-145.23;100.00;58621.06;5025250;28;20311;-52
2022/06/07 09:50:25;;;;;;;4.32;1.77;;;;;;;-145.23;100.00;58621.06;5024809;28;20311;-52
2022/06/07 09:52:55;;;;;;;2.63;1.73;;;;;;;-145.23;100.00;58621.06;5024359;28;20236;-52
2022/06/07 09:55:26;;;;;;;2.75;1.63;;;;;;;-145.23;100.00;58621.06;5016866;28;20372;-51
2022/06/07 09:58:10;;;;;;;1.90;1.63;;;;;;;-145.23;100.00;58621.06;5026177;28;20232;-54
2022/06/07 10:00:43;;;;;;;1.50;1.40;;;;;;;-145.23;100.00;58621.06;5023331;28;20243;-51
2022/06/07 10:03:30;;;;;;;2.60;1.40;;;;;;;-145.23;100.00;58621.06;5025075;28;20233;-51
2022/06/07 10:06:07;;;;;;;2.75;1.52;;;;;;;-145.23;100.00;58621.06;5023380;28;20291;-52
2022/06/07 10:08:44;;;;;;;2.53;1.20;;;;;;;-145.23;100.00;58621.06;5021569;28;20232;-52
2022/06/07 10:11:16;;;;;;;1.70;1.60;;;;;;;-145.23;100.00;58621.06;5027982;28;20236;-53
2022/06/07 10:13:52;;;;;;;5.18;1.20;;;;;;;-145.23;100.00;58621.06;5023603;28;20240;-52
2022/06/07 10:16:28;;;;;;;1.60;1.30;;;;;;;-145.23;100.00;58621.06;5025182;28;20237;-53
2022/06/07 10:19:02;;;;;;;1.65;1.50;;;;;;;-145.23;100.00;58621.06;5025794;28;20708;-52
2022/06/07 10:22:02;;;;;;;3.58;1.63;;;;;;;-145.23;100.00;58621.06;5024084;28;20966;-52
2022/06/07 10:24:38;;;;;;;1.90;1.17;;;;;;;-145.23;100.00;58621.06;5022453;28;20228;-52
2022/06/07 10:27:12;;;;;;;2.95;1.48;;;;;;;-145.23;100.00;58621.06;5023105;28;20307;-53
2022/06/07 10:29:58;;;;;;;1.55;1.45;;;;;;;-145.23;100.00;58621.06;5023739;28;21162;-51
2022/06/07 10:32:34;;;;;;;2.35;1.30;;;;;;;-145.23;100.00;58621.06;5021399;28;20243;-51
2022/06/07 10:35:07;;;;;;;2.35;1.50;;;;;;;-145.23;100.00;58621.06;5023408;28;20236;-52
2022/06/07 10:37:40;;;;;;;9.18;1.63;;;;;;;-145.23;100.00;58621.06;5023822;28;20327;-52
2022/06/07 10:40:13;;;;;;;1.60;1.35;;;;;;;-145.23;100.00;58621.06;5022536;28;20241;-52
2022/06/07 10:42:45;;;;;;;2.33;1.80;;;;;;;-145.23;100.00;58621.06;5019056;28;20243;-51
2022/06/07 10:45:18;;;;;;;3.42;1.40;;;;;;;-145.23;100.00;58621.06;5025863;28;20316;-55
2022/06/07 10:47:51;;;;;;;1.42;1.33;;;;;;;-145.23;100.00;58621.06;5024443;28;20740;-52
2022/06/07 10:50:21;;;;;;;1.45;1.20;;;;;;;-145.23;100.00;58621.06;5022268;28;20296;-52
2022/06/07 10:52:52;;;;;;;1.60;1.33;;;;;;;-145.23;100.00;58621.06;5026146;28;20247;-52
2022/06/07 10:55:23;;;;;;;1.77;1.08;;;;;;;-145.23;100.00;58621.06;5021056;28;20328;-51
2022/06/07 10:58:02;;;;;;;2.15;1.30;;;;;;;-145.23;100.00;58621.06;5020707;28;20228;-51
2022/06/07 11:00:38;;;;;;;1.48;1.23;;;;;;;-145.23;100.00;58621.06;5022193;28;20242;-51
2022/06/07 11:03:23;;;;;;;1.38;1.27;;;;;;;-145.23;100.00;58621.06;5022852;28;20746;-51
2022/06/07 11:11:23;;;;;;;1.50;1.05;;;;;;;-145.23;100.00;58621.06;5023438;28;20267;-51
2022/06/07 11:14:01;;;;;;;1.77;1.00;;;;;;;-145.23;100.00;58621.06;5024946;28;20327;-51
2022/06/07 11:16:32;;;;;;;1.45;0.90;;;;;;;-145.23;100.00;58621.06;5019999;28;20737;-52
2022/06/07 11:19:02;;;;;;;1.90;1.00;;;;;;;-145.23;100.00;58621.06;5021414;28;20233;-52
2022/06/07 11:21:31;;;;;;;1.00;0.90;;;;;;;-145.23;100.00;58621.06;5024025;28;20728;-51
2022/06/07 11:24:05;;;;;;;1.48;1.20;;;;;;;-145.23;100.00;58621.06;5023175;28;20232;-51
2022/06/07 11:26:38;;;;;;;0.82;0.82;;;;;;;-145.23;100.00;58621.06;5019810;28;20240;-50
2022/06/07 11:29:09;;;;;;;1.10;1.00;;;;;;;-145.23;100.00;58621.06;5022585;28;20290;-52
2022/06/07 11:31:42;;;;;;;0.65;0.65;;;;;;;-145.23;100.00;58621.06;5024288;28;20242;-51
2022/06/07 11:34:23;;;;;;;0.98;0.80;;;;;;;-145.23;100.00;58621.06;5023067;28;20233;-52
2022/06/07 11:36:50;;;;;;;0.95;0.80;;;;;;;-145.23;100.00;58621.06;5024394;28;20232;-52
2022/06/07 11:39:28;;;;;;;1.40;1.20;;;;;;;-145.23;100.00;58621.06;5024697;28;20232;-52
2022/06/07 11:41:56;;;;;;;2.50;0.80;;;;;;;-145.23;100.00;58621.06;5023896;28;20796;-51
2022/06/07 11:44:43;;;;;;;0.90;0.90;;;;;;;-145.23;100.00;58621.06;5025679;28;20236;-52
2022/06/07 11:47:27;;;;;;;0.90;0.90;;;;;;;-145.23;100.00;58621.06;5021858;28;20232;-51